Arminto, Wyoming
Current Conditions -  °F | °C
As of 1:53 AM on Thursday 23 Oct 2014 (Local Time) from KCPR Reporting Station
Clear Clear  
Wind Chill: -2°   Ceiling: Unl
Heat Index:   Visibility: 10mi
Dew Point: -8°   Wind: 9mph
Humidity: 50%   Direction: 240°WSW
Pressure: 30.11"   Gusts: NA
Location:  43.18°N, 107.26°W
Report Text: KCPR 230753Z AUTO 24008KT 10SM CLR 02/M08 A3011 RMK AO2 SLP174 T00171078
Loading
Personal Weather Stations






























Interactive Weather Map New forecast layout! Learn more

10-Day Weather Forecast

Advertisements
Track Severe Weather on mobile